sensor_id;sensor_type;location;lat;lon;timestamp;P1;durP1;ratioP1;P2;durP2;ratioP2
56141;SDS011;42018;48.588;10.836;2024-03-23T00:55:05;5.90;;;3.38;;
56141;SDS011;42018;48.588;10.836;2024-03-23T00:57:51;6.45;;;3.53;;
56141;SDS011;42018;48.588;10.836;2024-03-23T01:00:37;7.35;;;4.13;;
56141;SDS011;42018;48.588;10.836;2024-03-23T01:03:22;7.38;;;4.53;;
56141;SDS011;42018;48.588;10.836;2024-03-23T01:06:08;6.00;;;4.05;;
56141;SDS011;42018;48.588;10.836;2024-03-23T01:08:53;6.63;;;4.20;;
56141;SDS011;42018;48.588;10.836;2024-03-23T01:11:39;6.72;;;4.00;;
56141;SDS011;42018;48.588;10.836;2024-03-23T01:14:25;7.05;;;4.82;;
56141;SDS011;42018;48.588;10.836;2024-03-23T01:17:10;9.05;;;6.25;;
56141;SDS011;42018;48.588;10.836;2024-03-23T01:19:56;10.65;;;4.82;;
56141;SDS011;42018;48.588;10.836;2024-03-23T01:22:42;8.90;;;4.35;;
56141;SDS011;42018;48.588;10.836;2024-03-23T01:25:27;6.38;;;4.20;;
56141;SDS011;42018;48.588;10.836;2024-03-23T01:28:13;7.00;;;4.57;;
56141;SDS011;42018;48.588;10.836;2024-03-23T01:30:58;8.63;;;4.75;;
56141;SDS011;42018;48.588;10.836;2024-03-23T01:33:44;7.00;;;4.93;;
56141;SDS011;42018;48.588;10.836;2024-03-23T01:36:29;8.75;;;3.88;;
56141;SDS011;42018;48.588;10.836;2024-03-23T01:39:15;7.20;;;4.47;;
56141;SDS011;42018;48.588;10.836;2024-03-23T01:42:00;7.18;;;4.13;;
56141;SDS011;42018;48.588;10.836;2024-03-23T01:44:46;7.88;;;4.35;;
56141;SDS011;42018;48.588;10.836;2024-03-23T01:47:31;5.68;;;3.80;;
56141;SDS011;42018;48.588;10.836;2024-03-23T01:50:17;9.40;;;3.90;;
56141;SDS011;42018;48.588;10.836;2024-03-23T01:53:02;5.63;;;3.17;;
56141;SDS011;42018;48.588;10.836;2024-03-23T01:55:51;5.55;;;3.30;;
56141;SDS011;42018;48.588;10.836;2024-03-23T01:58:37;5.70;;;3.28;;
56141;SDS011;42018;48.588;10.836;2024-03-23T02:01:22;5.47;;;3.10;;
56141;SDS011;42018;48.588;10.836;2024-03-23T02:04:08;5.75;;;3.15;;
56141;SDS011;42018;48.588;10.836;2024-03-23T02:06:54;4.15;;;2.50;;
56141;SDS011;42018;48.588;10.836;2024-03-23T02:09:40;5.30;;;3.10;;
56141;SDS011;42018;48.588;10.836;2024-03-23T02:12:25;5.78;;;2.92;;
56141;SDS011;42018;48.588;10.836;2024-03-23T02:15:11;4.95;;;2.80;;
56141;SDS011;42018;48.588;10.836;2024-03-23T02:17:57;5.05;;;2.75;;
56141;SDS011;42018;48.588;10.836;2024-03-23T02:20:42;4.70;;;2.58;;
56141;SDS011;42018;48.588;10.836;2024-03-23T02:23:28;5.22;;;2.60;;
56141;SDS011;42018;48.588;10.836;2024-03-23T02:26:13;5.05;;;2.95;;
56141;SDS011;42018;48.588;10.836;2024-03-23T02:29:00;4.63;;;2.45;;
56141;SDS011;42018;48.588;10.836;2024-03-23T02:31:45;5.32;;;2.70;;
56141;SDS011;42018;48.588;10.836;2024-03-23T02:34:31;5.18;;;2.88;;
56141;SDS011;42018;48.588;10.836;2024-03-23T02:37:16;4.97;;;2.63;;
56141;SDS011;42018;48.588;10.836;2024-03-23T02:40:02;5.35;;;2.67;;
56141;SDS011;42018;48.588;10.836;2024-03-23T02:42:48;4.72;;;2.53;;
56141;SDS011;42018;48.588;10.836;2024-03-23T02:45:33;7.20;;;2.85;;
56141;SDS011;42018;48.588;10.836;2024-03-23T02:48:19;4.85;;;2.58;;
56141;SDS011;42018;48.588;10.836;2024-03-23T02:51:04;5.32;;;2.90;;
56141;SDS011;42018;48.588;10.836;2024-03-23T02:53:50;4.97;;;2.63;;
56141;SDS011;42018;48.588;10.836;2024-03-23T02:56:36;4.93;;;2.63;;
56141;SDS011;42018;48.588;10.836;2024-03-23T02:59:21;6.05;;;2.83;;
56141;SDS011;42018;48.588;10.836;2024-03-23T03:02:07;5.55;;;3.00;;
56141;SDS011;42018;48.588;10.836;2024-03-23T03:04:52;5.32;;;2.92;;
56141;SDS011;42018;48.588;10.836;2024-03-23T03:07:38;5.45;;;2.92;;
56141;SDS011;42018;48.588;10.836;2024-03-23T03:10:25;4.65;;;2.83;;
56141;SDS011;42018;48.588;10.836;2024-03-23T03:13:11;4.85;;;2.55;;
56141;SDS011;42018;48.588;10.836;2024-03-23T03:15:56;6.22;;;2.90;;
56141;SDS011;42018;48.588;10.836;2024-03-23T03:18:43;5.30;;;2.83;;
56141;SDS011;42018;48.588;10.836;2024-03-23T03:21:31;5.05;;;2.55;;
56141;SDS011;42018;48.588;10.836;2024-03-23T03:24:17;5.05;;;2.63;;
56141;SDS011;42018;48.588;10.836;2024-03-23T03:27:03;5.38;;;2.55;;
56141;SDS011;42018;48.588;10.836;2024-03-23T03:29:49;4.10;;;2.50;;
56141;SDS011;42018;48.588;10.836;2024-03-23T03:32:34;4.70;;;2.80;;
56141;SDS011;42018;48.588;10.836;2024-03-23T03:35:20;6.15;;;3.00;;
56141;SDS011;42018;48.588;10.836;2024-03-23T03:38:06;5.28;;;3.00;;
56141;SDS011;42018;48.588;10.836;2024-03-23T03:40:51;5.18;;;2.65;;
56141;SDS011;42018;48.588;10.836;2024-03-23T03:43:38;4.68;;;2.70;;
56141;SDS011;42018;48.588;10.836;2024-03-23T03:46:24;4.82;;;2.50;;
56141;SDS011;42018;48.588;10.836;2024-03-23T03:49:09;5.20;;;2.83;;
56141;SDS011;42018;48.588;10.836;2024-03-23T03:51:55;4.70;;;2.92;;
56141;SDS011;42018;48.588;10.836;2024-03-23T03:54:41;5.30;;;2.88;;
56141;SDS011;42018;48.588;10.836;2024-03-23T03:57:29;5.07;;;3.05;;
56141;SDS011;42018;48.588;10.836;2024-03-23T04:00:14;5.68;;;2.92;;
56141;SDS011;42018;48.588;10.836;2024-03-23T04:03:01;4.60;;;2.60;;
56141;SDS011;42018;48.588;10.836;2024-03-23T04:05:53;5.03;;;2.92;;
56141;SDS011;42018;48.588;10.836;2024-03-23T04:08:39;4.65;;;2.80;;
56141;SDS011;42018;48.588;10.836;2024-03-23T04:11:25;5.15;;;2.75;;
56141;SDS011;42018;48.588;10.836;2024-03-23T04:14:10;5.18;;;2.70;;
56141;SDS011;42018;48.588;10.836;2024-03-23T04:16:56;4.32;;;2.60;;
56141;SDS011;42018;48.588;10.836;2024-03-23T04:19:41;6.65;;;3.20;;
56141;SDS011;42018;48.588;10.836;2024-03-23T04:22:27;4.75;;;2.30;;
56141;SDS011;42018;48.588;10.836;2024-03-23T04:25:13;5.10;;;2.75;;
56141;SDS011;42018;48.588;10.836;2024-03-23T04:27:58;5.53;;;2.70;;
56141;SDS011;42018;48.588;10.836;2024-03-23T04:30:44;5.05;;;2.95;;
56141;SDS011;42018;48.588;10.836;2024-03-23T04:33:29;6.03;;;2.78;;
56141;SDS011;42018;48.588;10.836;2024-03-23T04:36:15;7.63;;;2.88;;
56141;SDS011;42018;48.588;10.836;2024-03-23T04:39:01;5.85;;;2.63;;
56141;SDS011;42018;48.588;10.836;2024-03-23T04:41:46;4.60;;;2.75;;
56141;SDS011;42018;48.588;10.836;2024-03-23T04:44:32;6.63;;;2.88;;
56141;SDS011;42018;48.588;10.836;2024-03-23T04:47:17;5.45;;;2.72;;
56141;SDS011;42018;48.588;10.836;2024-03-23T04:50:03;6.43;;;2.80;;
56141;SDS011;42018;48.588;10.836;2024-03-23T04:52:50;4.63;;;2.78;;
56141;SDS011;42018;48.588;10.836;2024-03-23T04:55:35;5.15;;;2.70;;
56141;SDS011;42018;48.588;10.836;2024-03-23T04:58:22;4.57;;;2.65;;
56141;SDS011;42018;48.588;10.836;2024-03-23T05:01:08;5.47;;;2.83;;
56141;SDS011;42018;48.588;10.836;2024-03-23T05:03:56;6.38;;;2.95;;
56141;SDS011;42018;48.588;10.836;2024-03-23T05:06:42;5.28;;;2.80;;
56141;SDS011;42018;48.588;10.836;2024-03-23T05:09:28;5.05;;;2.80;;
56141;SDS011;42018;48.588;10.836;2024-03-23T05:12:15;5.43;;;2.42;;
56141;SDS011;42018;48.588;10.836;2024-03-23T05:15:00;6.22;;;2.65;;
56141;SDS011;42018;48.588;10.836;2024-03-23T05:17:46;4.43;;;2.50;;
56141;SDS011;42018;48.588;10.836;2024-03-23T05:20:31;5.22;;;2.60;;
56141;SDS011;42018;48.588;10.836;2024-03-23T05:23:17;4.18;;;2.30;;
56141;SDS011;42018;48.588;10.836;2024-03-23T05:26:03;4.63;;;2.75;;
56141;SDS011;42018;48.588;10.836;2024-03-23T05:28:49;6.72;;;3.05;;
56141;SDS011;42018;48.588;10.836;2024-03-23T05:31:35;5.25;;;2.85;;
56141;SDS011;42018;48.588;10.836;2024-03-23T05:34:20;6.13;;;2.85;;
56141;SDS011;42018;48.588;10.836;2024-03-23T05:37:06;5.40;;;2.83;;
56141;SDS011;42018;48.588;10.836;2024-03-23T05:39:51;4.93;;;2.90;;
56141;SDS011;42018;48.588;10.836;2024-03-23T05:42:37;5.32;;;2.70;;
56141;SDS011;42018;48.588;10.836;2024-03-23T05:45:22;5.18;;;2.90;;
56141;SDS011;42018;48.588;10.836;2024-03-23T05:48:08;5.93;;;2.50;;
56141;SDS011;42018;48.588;10.836;2024-03-23T05:50:53;5.55;;;2.88;;
56141;SDS011;42018;48.588;10.836;2024-03-23T05:53:39;5.32;;;2.53;;
56141;SDS011;42018;48.588;10.836;2024-03-23T05:56:24;4.50;;;2.60;;
56141;SDS011;42018;48.588;10.836;2024-03-23T05:59:13;5.25;;;2.88;;
56141;SDS011;42018;48.588;10.836;2024-03-23T06:01:58;4.93;;;2.70;;
56141;SDS011;42018;48.588;10.836;2024-03-23T06:04:45;4.47;;;2.80;;
56141;SDS011;42018;48.588;10.836;2024-03-23T06:07:31;5.45;;;2.80;;
56141;SDS011;42018;48.588;10.836;2024-03-23T06:10:17;5.68;;;2.80;;
56141;SDS011;42018;48.588;10.836;2024-03-23T06:13:02;5.40;;;2.75;;
56141;SDS011;42018;48.588;10.836;2024-03-23T06:15:48;5.47;;;2.90;;
56141;SDS011;42018;48.588;10.836;2024-03-23T06:18:34;5.18;;;2.78;;
56141;SDS011;42018;48.588;10.836;2024-03-23T06:21:20;4.68;;;2.78;;
56141;SDS011;42018;48.588;10.836;2024-03-23T06:24:05;4.90;;;2.47;;
56141;SDS011;42018;48.588;10.836;2024-03-23T06:26:51;4.88;;;2.50;;
56141;SDS011;42018;48.588;10.836;2024-03-23T06:29:37;5.28;;;2.88;;
56141;SDS011;42018;48.588;10.836;2024-03-23T06:32:22;4.97;;;2.35;;
56141;SDS011;42018;48.588;10.836;2024-03-23T06:35:08;4.80;;;2.60;;
56141;SDS011;42018;48.588;10.836;2024-03-23T06:37:54;6.55;;;3.00;;
56141;SDS011;42018;48.588;10.836;2024-03-23T06:40:40;5.80;;;2.63;;
56141;SDS011;42018;48.588;10.836;2024-03-23T06:43:25;4.10;;;2.35;;
56141;SDS011;42018;48.588;10.836;2024-03-23T06:46:11;5.38;;;2.58;;
56141;SDS011;42018;48.588;10.836;2024-03-23T06:48:57;5.75;;;2.47;;
56141;SDS011;42018;48.588;10.836;2024-03-23T06:51:42;5.53;;;2.42;;
56141;SDS011;42018;48.588;10.836;2024-03-23T06:54:28;6.65;;;3.70;;
56141;SDS011;42018;48.588;10.836;2024-03-23T06:57:14;7.40;;;3.85;;
56141;SDS011;42018;48.588;10.836;2024-03-23T06:59:59;8.32;;;4.30;;
56141;SDS011;42018;48.588;10.836;2024-03-23T07:02:45;8.60;;;4.55;;
56141;SDS011;42018;48.588;10.836;2024-03-23T07:05:30;8.27;;;5.03;;
56141;SDS011;42018;48.588;10.836;2024-03-23T07:08:16;7.88;;;5.07;;
56141;SDS011;42018;48.588;10.836;2024-03-23T07:11:06;10.82;;;6.43;;
56141;SDS011;42018;48.588;10.836;2024-03-23T07:13:52;8.05;;;6.63;;
56141;SDS011;42018;48.588;10.836;2024-03-23T07:16:41;8.60;;;5.68;;
56141;SDS011;42018;48.588;10.836;2024-03-23T07:19:27;9.90;;;8.05;;
56141;SDS011;42018;48.588;10.836;2024-03-23T07:22:13;9.57;;;6.78;;
56141;SDS011;42018;48.588;10.836;2024-03-23T07:25:00;7.72;;;5.57;;
56141;SDS011;42018;48.588;10.836;2024-03-23T07:27:46;7.63;;;4.80;;
56141;SDS011;42018;48.588;10.836;2024-03-23T07:30:31;7.22;;;4.95;;
56141;SDS011;42018;48.588;10.836;2024-03-23T07:33:17;7.38;;;4.80;;
56141;SDS011;42018;48.588;10.836;2024-03-23T07:36:03;7.78;;;4.93;;
56141;SDS011;42018;48.588;10.836;2024-03-23T07:38:49;8.70;;;5.53;;
56141;SDS011;42018;48.588;10.836;2024-03-23T07:41:34;7.47;;;5.57;;
56141;SDS011;42018;48.588;10.836;2024-03-23T07:44:20;6.35;;;4.03;;
56141;SDS011;42018;48.588;10.836;2024-03-23T07:47:06;6.28;;;3.95;;
56141;SDS011;42018;48.588;10.836;2024-03-23T07:49:52;7.18;;;4.50;;
56141;SDS011;42018;48.588;10.836;2024-03-23T07:52:37;6.55;;;3.42;;
56141;SDS011;42018;48.588;10.836;2024-03-23T07:55:23;5.93;;;4.13;;
56141;SDS011;42018;48.588;10.836;2024-03-23T07:58:08;5.95;;;3.63;;
56141;SDS011;42018;48.588;10.836;2024-03-23T08:00:54;5.68;;;3.60;;
56141;SDS011;42018;48.588;10.836;2024-03-23T08:03:41;4.68;;;3.03;;
56141;SDS011;42018;48.588;10.836;2024-03-23T08:06:30;5.55;;;3.08;;
56141;SDS011;42018;48.588;10.836;2024-03-23T08:09:15;5.07;;;2.83;;
56141;SDS011;42018;48.588;10.836;2024-03-23T08:12:01;4.93;;;2.97;;
56141;SDS011;42018;48.588;10.836;2024-03-23T08:14:47;6.13;;;3.38;;
56141;SDS011;42018;48.588;10.836;2024-03-23T08:17:32;5.40;;;2.58;;
56141;SDS011;42018;48.588;10.836;2024-03-23T08:20:18;4.80;;;2.83;;
56141;SDS011;42018;48.588;10.836;2024-03-23T08:23:07;5.35;;;2.30;;
56141;SDS011;42018;48.588;10.836;2024-03-23T08:26:00;5.05;;;2.10;;
56141;SDS011;42018;48.588;10.836;2024-03-23T08:28:46;4.63;;;2.25;;
56141;SDS011;42018;48.588;10.836;2024-03-23T08:31:33;4.95;;;2.35;;
56141;SDS011;42018;48.588;10.836;2024-03-23T08:34:18;3.75;;;1.83;;
56141;SDS011;42018;48.588;10.836;2024-03-23T08:37:04;5.32;;;2.15;;
56141;SDS011;42018;48.588;10.836;2024-03-23T08:39:50;4.03;;;1.85;;
56141;SDS011;42018;48.588;10.836;2024-03-23T08:42:36;3.08;;;1.63;;
56141;SDS011;42018;48.588;10.836;2024-03-23T08:45:22;4.00;;;1.75;;
56141;SDS011;42018;48.588;10.836;2024-03-23T08:48:07;3.55;;;1.40;;
56141;SDS011;42018;48.588;10.836;2024-03-23T08:53:46;2.00;;;1.20;;
56141;SDS011;42018;48.588;10.836;2024-03-23T08:56:34;2.70;;;0.90;;
56141;SDS011;42018;48.588;10.836;2024-03-23T08:59:20;1.38;;;1.00;;
56141;SDS011;42018;48.588;10.836;2024-03-23T09:02:06;1.52;;;1.00;;
56141;SDS011;42018;48.588;10.836;2024-03-23T09:04:52;1.58;;;1.00;;
56141;SDS011;42018;48.588;10.836;2024-03-23T09:07:37;1.48;;;0.93;;
56141;SDS011;42018;48.588;10.836;2024-03-23T09:10:23;2.95;;;1.20;;
56141;SDS011;42018;48.588;10.836;2024-03-23T09:13:08;1.52;;;1.00;;
56141;SDS011;42018;48.588;10.836;2024-03-23T09:15:54;1.27;;;0.90;;
56141;SDS011;42018;48.588;10.836;2024-03-23T09:18:41;1.75;;;1.05;;
56141;SDS011;42018;48.588;10.836;2024-03-23T09:21:27;1.38;;;0.90;;
56141;SDS011;42018;48.588;10.836;2024-03-23T09:24:13;1.77;;;1.00;;
56141;SDS011;42018;48.588;10.836;2024-03-23T09:26:58;1.33;;;1.00;;
56141;SDS011;42018;48.588;10.836;2024-03-23T09:29:44;2.05;;;1.10;;
56141;SDS011;42018;48.588;10.836;2024-03-23T09:32:30;3.42;;;1.73;;
56141;SDS011;42018;48.588;10.836;2024-03-23T09:35:16;4.00;;;1.58;;
56141;SDS011;42018;48.588;10.836;2024-03-23T09:38:01;1.05;;;0.95;;
56141;SDS011;42018;48.588;10.836;2024-03-23T09:40:47;1.55;;;1.08;;
56141;SDS011;42018;48.588;10.836;2024-03-23T09:43:35;1.63;;;1.00;;
56141;SDS011;42018;48.588;10.836;2024-03-23T09:46:21;1.60;;;0.90;;
56141;SDS011;42018;48.588;10.836;2024-03-23T09:49:07;5.82;;;2.10;;
56141;SDS011;42018;48.588;10.836;2024-03-23T09:51:54;2.08;;;1.10;;
56141;SDS011;42018;48.588;10.836;2024-03-23T09:54:40;1.13;;;0.93;;
56141;SDS011;42018;48.588;10.836;2024-03-23T09:57:26;2.63;;;1.35;;
56141;SDS011;42018;48.588;10.836;2024-03-23T10:00:12;1.55;;;1.00;;
56141;SDS011;42018;48.588;10.836;2024-03-23T10:02:58;1.25;;;1.00;;
56141;SDS011;42018;48.588;10.836;2024-03-23T10:05:47;1.83;;;0.98;;
56141;SDS011;42018;48.588;10.836;2024-03-23T10:08:32;1.65;;;1.00;;
56141;SDS011;42018;48.588;10.836;2024-03-23T10:11:18;1.80;;;0.90;;
56141;SDS011;42018;48.588;10.836;2024-03-23T10:14:05;1.00;;;0.88;;
56141;SDS011;42018;48.588;10.836;2024-03-23T10:16:51;1.35;;;0.80;;
56141;SDS011;42018;48.588;10.836;2024-03-23T10:19:37;1.45;;;0.88;;
56141;SDS011;42018;48.588;10.836;2024-03-23T10:22:23;1.73;;;0.90;;
56141;SDS011;42018;48.588;10.836;2024-03-23T10:25:12;0.95;;;0.80;;
56141;SDS011;42018;48.588;10.836;2024-03-23T10:27:59;1.45;;;0.90;;
56141;SDS011;42018;48.588;10.836;2024-03-23T10:30:49;1.95;;;0.85;;
56141;SDS011;42018;48.588;10.836;2024-03-23T10:33:34;3.38;;;1.10;;
56141;SDS011;42018;48.588;10.836;2024-03-23T10:36:20;2.60;;;1.20;;
56141;SDS011;42018;48.588;10.836;2024-03-23T10:39:11;3.72;;;1.25;;
56141;SDS011;42018;48.588;10.836;2024-03-23T10:41:57;2.72;;;1.20;;
56141;SDS011;42018;48.588;10.836;2024-03-23T10:44:45;2.35;;;1.38;;
56141;SDS011;42018;48.588;10.836;2024-03-23T10:47:31;2.90;;;1.23;;
56141;SDS011;42018;48.588;10.836;2024-03-23T10:50:17;2.10;;;1.10;;
56141;SDS011;42018;48.588;10.836;2024-03-23T10:53:03;2.67;;;1.30;;
56141;SDS011;42018;48.588;10.836;2024-03-23T10:55:49;2.83;;;1.40;;
56141;SDS011;42018;48.588;10.836;2024-03-23T10:58:40;2.97;;;1.27;;
56141;SDS011;42018;48.588;10.836;2024-03-23T11:01:27;2.90;;;1.35;;
56141;SDS011;42018;48.588;10.836;2024-03-23T11:04:17;4.53;;;1.83;;
56141;SDS011;42018;48.588;10.836;2024-03-23T11:10:24;4.57;;;1.95;;
56141;SDS011;42018;48.588;10.836;2024-03-23T11:13:23;6.93;;;2.30;;
56141;SDS011;42018;48.588;10.836;2024-03-23T11:16:13;4.55;;;2.05;;
56141;SDS011;42018;48.588;10.836;2024-03-23T11:22:04;3.92;;;1.90;;
56141;SDS011;42018;48.588;10.836;2024-03-23T11:24:53;5.30;;;1.93;;
56141;SDS011;42018;48.588;10.836;2024-03-23T11:27:38;4.88;;;2.15;;
56141;SDS011;42018;48.588;10.836;2024-03-23T11:30:25;4.75;;;2.13;;
56141;SDS011;42018;48.588;10.836;2024-03-23T11:33:11;5.18;;;2.10;;
56141;SDS011;42018;48.588;10.836;2024-03-23T11:35:57;6.28;;;2.33;;
56141;SDS011;42018;48.588;10.836;2024-03-23T11:38:43;5.10;;;2.30;;
56141;SDS011;42018;48.588;10.836;2024-03-23T11:41:28;4.22;;;2.05;;
56141;SDS011;42018;48.588;10.836;2024-03-23T11:44:21;3.95;;;2.17;;
56141;SDS011;42018;48.588;10.836;2024-03-23T11:47:09;6.95;;;2.67;;
56141;SDS011;42018;48.588;10.836;2024-03-23T11:49:56;4.55;;;2.13;;
56141;SDS011;42018;48.588;10.836;2024-03-23T11:52:41;5.30;;;2.47;;
56141;SDS011;42018;48.588;10.836;2024-03-23T11:55:27;6.65;;;3.15;;
56141;SDS011;42018;48.588;10.836;2024-03-23T11:58:12;5.60;;;2.38;;
56141;SDS011;42018;48.588;10.836;2024-03-23T12:01:00;4.85;;;2.47;;
56141;SDS011;42018;48.588;10.836;2024-03-23T12:03:47;4.80;;;2.30;;
56141;SDS011;42018;48.588;10.836;2024-03-23T12:06:33;6.00;;;2.47;;
56141;SDS011;42018;48.588;10.836;2024-03-23T12:09:19;5.55;;;2.20;;
56141;SDS011;42018;48.588;10.836;2024-03-23T12:12:13;6.90;;;2.70;;
56141;SDS011;42018;48.588;10.836;2024-03-23T12:17:48;7.32;;;2.30;;
56141;SDS011;42018;48.588;10.836;2024-03-23T12:20:34;9.77;;;2.55;;
56141;SDS011;42018;48.588;10.836;2024-03-23T12:23:20;5.95;;;2.47;;
56141;SDS011;42018;48.588;10.836;2024-03-23T12:26:06;5.72;;;2.83;;
56141;SDS011;42018;48.588;10.836;2024-03-23T12:28:51;6.25;;;2.85;;
56141;SDS011;42018;48.588;10.836;2024-03-23T12:31:37;6.93;;;2.85;;
56141;SDS011;42018;48.588;10.836;2024-03-23T12:34:22;6.88;;;2.65;;
56141;SDS011;42018;48.588;10.836;2024-03-23T12:37:08;5.75;;;2.80;;
56141;SDS011;42018;48.588;10.836;2024-03-23T12:39:54;6.63;;;2.80;;
56141;SDS011;42018;48.588;10.836;2024-03-23T12:42:40;6.93;;;3.90;;
56141;SDS011;42018;48.588;10.836;2024-03-23T12:45:25;6.72;;;3.08;;
56141;SDS011;42018;48.588;10.836;2024-03-23T12:48:11;7.63;;;3.80;;
56141;SDS011;42018;48.588;10.836;2024-03-23T12:50:56;7.03;;;3.03;;
56141;SDS011;42018;48.588;10.836;2024-03-23T12:53:42;9.45;;;2.78;;
56141;SDS011;42018;48.588;10.836;2024-03-23T12:56:27;5.85;;;2.33;;
56141;SDS011;42018;48.588;10.836;2024-03-23T12:59:16;6.10;;;2.45;;
56141;SDS011;42018;48.588;10.836;2024-03-23T13:02:01;7.70;;;2.40;;
56141;SDS011;42018;48.588;10.836;2024-03-23T13:04:53;5.10;;;2.42;;
56141;SDS011;42018;48.588;10.836;2024-03-23T13:07:39;4.40;;;2.00;;
56141;SDS011;42018;48.588;10.836;2024-03-23T13:10:25;5.85;;;2.35;;
56141;SDS011;42018;48.588;10.836;2024-03-23T13:13:10;5.20;;;2.42;;
56141;SDS011;42018;48.588;10.836;2024-03-23T13:15:56;5.60;;;2.00;;
56141;SDS011;42018;48.588;10.836;2024-03-23T13:18:41;4.25;;;2.25;;
56141;SDS011;42018;48.588;10.836;2024-03-23T13:21:27;5.40;;;2.30;;
56141;SDS011;42018;48.588;10.836;2024-03-23T13:24:12;5.95;;;2.05;;
56141;SDS011;42018;48.588;10.836;2024-03-23T13:26:58;6.40;;;2.45;;
56141;SDS011;42018;48.588;10.836;2024-03-23T13:29:43;5.07;;;2.33;;
56141;SDS011;42018;48.588;10.836;2024-03-23T13:32:31;4.70;;;1.92;;
56141;SDS011;42018;48.588;10.836;2024-03-23T13:35:17;5.50;;;2.03;;
56141;SDS011;42018;48.588;10.836;2024-03-23T13:38:02;6.32;;;2.50;;
56141;SDS011;42018;48.588;10.836;2024-03-23T13:43:40;4.97;;;1.83;;
56141;SDS011;42018;48.588;10.836;2024-03-23T13:46:26;3.80;;;1.70;;
56141;SDS011;42018;48.588;10.836;2024-03-23T13:49:18;6.25;;;2.17;;
56141;SDS011;42018;48.588;10.836;2024-03-23T13:52:15;6.55;;;2.05;;
56141;SDS011;42018;48.588;10.836;2024-03-23T13:55:00;3.78;;;1.77;;
56141;SDS011;42018;48.588;10.836;2024-03-23T13:57:46;4.80;;;2.05;;
56141;SDS011;42018;48.588;10.836;2024-03-23T14:00:31;4.65;;;1.90;;
56141;SDS011;42018;48.588;10.836;2024-03-23T14:03:17;4.13;;;1.75;;
56141;SDS011;42018;48.588;10.836;2024-03-23T14:06:06;5.13;;;2.00;;
56141;SDS011;42018;48.588;10.836;2024-03-23T14:08:52;5.32;;;1.90;;
56141;SDS011;42018;48.588;10.836;2024-03-23T14:11:38;6.47;;;1.90;;
56141;SDS011;42018;48.588;10.836;2024-03-23T14:14:25;5.70;;;2.28;;
56141;SDS011;42018;48.588;10.836;2024-03-23T14:17:11;6.07;;;1.90;;
56141;SDS011;42018;48.588;10.836;2024-03-23T14:19:59;5.93;;;1.88;;
56141;SDS011;42018;48.588;10.836;2024-03-23T14:22:50;5.07;;;1.90;;
56141;SDS011;42018;48.588;10.836;2024-03-23T14:25:36;6.32;;;2.05;;
56141;SDS011;42018;48.588;10.836;2024-03-23T14:28:22;7.95;;;1.98;;
56141;SDS011;42018;48.588;10.836;2024-03-23T14:31:08;8.70;;;1.83;;
56141;SDS011;42018;48.588;10.836;2024-03-23T14:33:55;5.57;;;1.90;;
56141;SDS011;42018;48.588;10.836;2024-03-23T14:36:41;7.03;;;1.95;;
56141;SDS011;42018;48.588;10.836;2024-03-23T14:39:26;4.07;;;1.60;;
56141;SDS011;42018;48.588;10.836;2024-03-23T14:42:12;4.80;;;1.90;;
56141;SDS011;42018;48.588;10.836;2024-03-23T14:44:57;6.88;;;2.10;;
56141;SDS011;42018;48.588;10.836;2024-03-23T14:47:43;8.98;;;2.17;;
56141;SDS011;42018;48.588;10.836;2024-03-23T14:50:30;7.18;;;2.00;;
56141;SDS011;42018;48.588;10.836;2024-03-23T14:53:15;8.50;;;2.35;;
56141;SDS011;42018;48.588;10.836;2024-03-23T14:56:02;9.02;;;2.35;;
56141;SDS011;42018;48.588;10.836;2024-03-23T14:58:51;9.10;;;2.85;;
56141;SDS011;42018;48.588;10.836;2024-03-23T15:01:37;6.73;;;2.57;;
56141;SDS011;42018;48.588;10.836;2024-03-23T15:04:23;8.30;;;2.13;;
56141;SDS011;42018;48.588;10.836;2024-03-23T15:07:08;7.75;;;2.45;;
56141;SDS011;42018;48.588;10.836;2024-03-23T15:09:54;8.93;;;2.20;;
56141;SDS011;42018;48.588;10.836;2024-03-23T15:12:40;7.25;;;1.90;;
56141;SDS011;42018;48.588;10.836;2024-03-23T15:15:26;6.10;;;2.10;;
56141;SDS011;42018;48.588;10.836;2024-03-23T15:18:11;12.10;;;8.65;;
56141;SDS011;42018;48.588;10.836;2024-03-23T15:21:01;5.72;;;2.17;;
56141;SDS011;42018;48.588;10.836;2024-03-23T15:23:48;5.57;;;2.33;;
56141;SDS011;42018;48.588;10.836;2024-03-23T15:26:34;7.32;;;2.35;;
56141;SDS011;42018;48.588;10.836;2024-03-23T15:29:20;5.97;;;2.33;;
56141;SDS011;42018;48.588;10.836;2024-03-23T15:32:07;3.55;;;1.70;;
56141;SDS011;42018;48.588;10.836;2024-03-23T15:34:52;5.00;;;1.90;;
56141;SDS011;42018;48.588;10.836;2024-03-23T15:37:38;5.50;;;1.70;;
56141;SDS011;42018;48.588;10.836;2024-03-23T15:40:24;5.18;;;1.98;;
56141;SDS011;42018;48.588;10.836;2024-03-23T15:43:10;4.40;;;1.73;;
56141;SDS011;42018;48.588;10.836;2024-03-23T15:45:55;3.97;;;1.40;;
56141;SDS011;42018;48.588;10.836;2024-03-23T15:48:41;4.80;;;1.77;;
56141;SDS011;42018;48.588;10.836;2024-03-23T15:51:31;4.32;;;1.67;;
56141;SDS011;42018;48.588;10.836;2024-03-23T15:57:07;3.47;;;1.63;;
56141;SDS011;42018;48.588;10.836;2024-03-23T15:59:53;5.55;;;1.67;;
56141;SDS011;42018;48.588;10.836;2024-03-23T16:02:39;3.75;;;1.50;;
56141;SDS011;42018;48.588;10.836;2024-03-23T16:05:24;5.93;;;1.85;;
56141;SDS011;42018;48.588;10.836;2024-03-23T16:08:10;4.40;;;1.55;;
56141;SDS011;42018;48.588;10.836;2024-03-23T16:10:59;4.78;;;1.55;;
56141;SDS011;42018;48.588;10.836;2024-03-23T16:16:31;2.25;;;1.20;;
56141;SDS011;42018;48.588;10.836;2024-03-23T16:19:17;3.33;;;1.40;;
56141;SDS011;42018;48.588;10.836;2024-03-23T16:22:02;2.80;;;1.38;;
56141;SDS011;42018;48.588;10.836;2024-03-23T16:24:48;3.90;;;1.30;;
56141;SDS011;42018;48.588;10.836;2024-03-23T16:27:34;3.25;;;1.33;;
56141;SDS011;42018;48.588;10.836;2024-03-23T16:30:19;3.13;;;1.33;;
56141;SDS011;42018;48.588;10.836;2024-03-23T16:33:05;3.33;;;1.40;;
56141;SDS011;42018;48.588;10.836;2024-03-23T16:35:58;7.35;;;3.65;;
56141;SDS011;42018;48.588;10.836;2024-03-23T16:38:44;1.63;;;1.02;;
56141;SDS011;42018;48.588;10.836;2024-03-23T16:41:30;2.88;;;1.48;;
56141;SDS011;42018;48.588;10.836;2024-03-23T16:44:16;3.13;;;1.52;;
56141;SDS011;42018;48.588;10.836;2024-03-23T16:47:01;3.78;;;1.40;;
56141;SDS011;42018;48.588;10.836;2024-03-23T16:49:48;2.97;;;1.30;;
56141;SDS011;42018;48.588;10.836;2024-03-23T16:52:34;3.58;;;1.50;;
56141;SDS011;42018;48.588;10.836;2024-03-23T16:55:19;3.75;;;1.90;;
56141;SDS011;42018;48.588;10.836;2024-03-23T16:58:05;5.35;;;3.00;;
56141;SDS011;42018;48.588;10.836;2024-03-23T17:00:50;5.15;;;2.00;;
56141;SDS011;42018;48.588;10.836;2024-03-23T17:03:38;4.13;;;1.63;;
56141;SDS011;42018;48.588;10.836;2024-03-23T17:06:23;4.65;;;1.58;;
56141;SDS011;42018;48.588;10.836;2024-03-23T17:09:10;3.53;;;1.50;;
56141;SDS011;42018;48.588;10.836;2024-03-23T17:11:56;5.40;;;1.83;;
56141;SDS011;42018;48.588;10.836;2024-03-23T17:14:42;4.15;;;1.50;;
56141;SDS011;42018;48.588;10.836;2024-03-23T17:17:28;4.40;;;1.80;;
56141;SDS011;42018;48.588;10.836;2024-03-23T17:20:13;5.22;;;2.38;;
56141;SDS011;42018;48.588;10.836;2024-03-23T17:22:59;4.20;;;1.67;;
56141;SDS011;42018;48.588;10.836;2024-03-23T17:25:46;3.28;;;1.45;;
56141;SDS011;42018;48.588;10.836;2024-03-23T17:28:31;2.85;;;1.55;;
56141;SDS011;42018;48.588;10.836;2024-03-23T17:31:17;3.03;;;1.42;;
56141;SDS011;42018;48.588;10.836;2024-03-23T17:34:03;5.78;;;2.30;;
56141;SDS011;42018;48.588;10.836;2024-03-23T17:36:49;4.10;;;2.00;;
56141;SDS011;42018;48.588;10.836;2024-03-23T17:39:35;3.55;;;1.70;;